X  FermerMétéo aéronautique     LFRZ Saint-Nazaire-Montoir

Température

18°C Température

10°C Point de rosée

60% Humidité



Vent

14 KM/H

 9 MPH

 4 M/S

 8 KTS



20°
Nord Nord
Est
Conditions actuelles

Ciel clair Ciel clair
Pression : 1020.92 hPa - 30.15 in
Visibilité : 10 km - 6.2 mi
Aéroport
Code OACI : LFRZ

Aéroport : Saint-Nazaire-Montoir (14 km)

Metar :
LFRZ 102000Z AUTO 02008KT CAVOK 18/10 Q1021 NOSIG

Publication : 10-07-2020 22:00